WZZ4GN LICJ-EPMO
Flight info
| Callsign | WZZ4GN |
|---|---|
| Flight time | N/A |
| Altitude | 36000 |
| Route | ROSAS DCT AMANO DCT VAPUP/N0449F350 DCT KOPRY DCT OLATI DCT XOMBA DCT MEBAN DCT ORTEB/N0451F360 DCT KONZI DCT LOGDA |
| Aircraft | A21N/M-SDE3FGHIRWY/LB1 |
Departure
| Time | N/A |
|---|---|
| Airport | Falcone–Borsellino Airport (LICJ) |
Arrival
| Time | 2026-04-30 19:02 |
|---|---|
| Airport | Warsaw Modlin Airport (EPMO) |
| Time | Latitude | Longitude | Altitude | Speed | Heading |
|---|---|---|---|---|---|
| 2026-04-30 17:39 | 45.35159 | 16.45120 | 35361 ft | 429 kts | 19° |
| 2026-04-30 17:42 | 45.62738 | 16.60810 | 35357 ft | 427 kts | 19° |
| 2026-04-30 17:43 | 45.76503 | 16.68707 | 35363 ft | 426 kts | 20° |
| 2026-04-30 17:44 | 45.92994 | 16.78213 | 35340 ft | 425 kts | 21° |
| 2026-04-30 17:47 | 46.17644 | 16.92543 | 35339 ft | 424 kts | 21° |
| 2026-04-30 17:48 | 46.36463 | 17.04769 | 35356 ft | 423 kts | 24° |
| 2026-04-30 17:50 | 46.57711 | 17.19376 | 35358 ft | 422 kts | 24° |
| 2026-04-30 17:52 | 46.73542 | 17.30337 | 35359 ft | 419 kts | 24° |
| 2026-04-30 17:54 | 46.97153 | 17.46812 | 35356 ft | 416 kts | 25° |
| 2026-04-30 17:56 | 47.17770 | 17.62172 | 35361 ft | 415 kts | 26° |
| 2026-04-30 17:58 | 47.33160 | 17.73777 | 35358 ft | 415 kts | 27° |
| 2026-04-30 18:00 | 47.53619 | 17.89310 | 35350 ft | 413 kts | 27° |
| 2026-04-30 18:01 | 47.66333 | 17.99030 | 35355 ft | 412 kts | 27° |
| 2026-04-30 18:02 | 47.81340 | 18.11291 | 35349 ft | 412 kts | 31° |
| 2026-04-30 18:04 | 47.96017 | 18.24544 | 35373 ft | 410 kts | 31° |
| 2026-04-30 18:06 | 48.15442 | 18.42204 | 35369 ft | 408 kts | 31° |
| 2026-04-30 18:08 | 48.32347 | 18.57705 | 35349 ft | 407 kts | 31° |
| 2026-04-30 18:10 | 48.51502 | 18.75412 | 35348 ft | 404 kts | 32° |
| 2026-04-30 18:11 | 48.68221 | 18.90997 | 35335 ft | 404 kts | 32° |
| 2026-04-30 18:13 | 48.80127 | 19.02169 | 35343 ft | 403 kts | 32° |
| 2026-04-30 18:14 | 48.91959 | 19.13342 | 35367 ft | 401 kts | 32° |
| 2026-04-30 18:15 | 49.06097 | 19.26766 | 35364 ft | 399 kts | 32° |
| 2026-04-30 18:16 | 49.15487 | 19.35736 | 35343 ft | 400 kts | 32° |
| 2026-04-30 18:17 | 49.20181 | 19.40231 | 35354 ft | 399 kts | 32° |
| 2026-04-30 18:18 | 49.27210 | 19.46984 | 35368 ft | 399 kts | 32° |
| 2026-04-30 18:18 | 49.31905 | 19.51508 | 35351 ft | 398 kts | 32° |
| 2026-04-30 18:19 | 49.36566 | 19.56008 | 35325 ft | 398 kts | 32° |
| 2026-04-30 18:19 | 49.41233 | 19.60527 | 35336 ft | 398 kts | 32° |
| 2026-04-30 18:20 | 49.45761 | 19.65414 | 35352 ft | 396 kts | 38° |
| 2026-04-30 18:20 | 49.49959 | 19.70917 | 35346 ft | 398 kts | 39° |
| 2026-04-30 18:21 | 49.54677 | 19.75236 | 35353 ft | 397 kts | 25° |
| 2026-04-30 18:21 | 49.59892 | 19.78104 | 35355 ft | 400 kts | 21° |
| 2026-04-30 18:22 | 49.65118 | 19.80829 | 35375 ft | 397 kts | 21° |
| 2026-04-30 18:22 | 49.72973 | 19.84942 | 35325 ft | 398 kts | 20° |
| 2026-04-30 18:23 | 49.78204 | 19.87689 | 35368 ft | 397 kts | 21° |
| 2026-04-30 18:23 | 49.83428 | 19.90444 | 35401 ft | 396 kts | 21° |
| 2026-04-30 18:24 | 49.91245 | 19.94574 | 35398 ft | 396 kts | 21° |
| 2026-04-30 18:25 | 49.96450 | 19.97333 | 35379 ft | 396 kts | 21° |
| 2026-04-30 18:25 | 50.04253 | 20.01480 | 35411 ft | 395 kts | 21° |
| 2026-04-30 18:26 | 50.12014 | 20.05618 | 35375 ft | 394 kts | 21° |
| 2026-04-30 18:27 | 50.19728 | 20.09750 | 35379 ft | 393 kts | 21° |
| 2026-04-30 18:28 | 50.27456 | 20.13898 | 35393 ft | 392 kts | 21° |
| 2026-04-30 18:28 | 50.35169 | 20.18054 | 35381 ft | 392 kts | 21° |
| 2026-04-30 18:29 | 50.45420 | 20.23596 | 35407 ft | 389 kts | 21° |
| 2026-04-30 18:30 | 50.50496 | 20.26354 | 35143 ft | 382 kts | 21° |
| 2026-04-30 18:30 | 50.55471 | 20.29057 | 34725 ft | 377 kts | 22° |
| 2026-04-30 18:31 | 50.57937 | 20.30397 | 34508 ft | 375 kts | 22° |
| 2026-04-30 18:31 | 50.62834 | 20.33074 | 34095 ft | 374 kts | 22° |
| 2026-04-30 18:32 | 50.67731 | 20.35759 | 33642 ft | 376 kts | 22° |
| 2026-04-30 18:32 | 50.70176 | 20.37092 | 33200 ft | 376 kts | 22° |
| 2026-04-30 18:32 | 50.75079 | 20.39780 | 32122 ft | 372 kts | 22° |
| 2026-04-30 18:33 | 50.77495 | 20.41108 | 31660 ft | 367 kts | 23° |
| 2026-04-30 18:33 | 50.82268 | 20.43736 | 30677 ft | 359 kts | 23° |
| 2026-04-30 18:33 | 50.84613 | 20.45034 | 30174 ft | 355 kts | 23° |
| 2026-04-30 18:34 | 50.86889 | 20.46293 | 29702 ft | 350 kts | 22° |
| 2026-04-30 18:34 | 50.91435 | 20.48804 | 28775 ft | 341 kts | 23° |
| 2026-04-30 18:34 | 50.93657 | 20.50036 | 28325 ft | 337 kts | 22° |
| 2026-04-30 18:35 | 50.95850 | 20.51253 | 27878 ft | 333 kts | 22° |
| 2026-04-30 18:35 | 50.97998 | 20.52446 | 27450 ft | 329 kts | 22° |
| 2026-04-30 18:35 | 51.00129 | 20.53631 | 27024 ft | 325 kts | 22° |
| 2026-04-30 18:36 | 51.04333 | 20.55965 | 26181 ft | 318 kts | 22° |
| 2026-04-30 18:36 | 51.06419 | 20.57125 | 25754 ft | 314 kts | 22° |
| 2026-04-30 18:36 | 51.10476 | 20.59391 | 24953 ft | 308 kts | 22° |
| 2026-04-30 18:37 | 51.12489 | 20.60515 | 24547 ft | 305 kts | 22° |
| 2026-04-30 18:37 | 51.14457 | 20.61616 | 24155 ft | 303 kts | 22° |
| 2026-04-30 18:37 | 51.16439 | 20.62721 | 23755 ft | 301 kts | 22° |
| 2026-04-30 18:37 | 51.18403 | 20.63820 | 23350 ft | 299 kts | 22° |
| 2026-04-30 18:38 | 51.20366 | 20.64924 | 22957 ft | 297 kts | 22° |
| 2026-04-30 18:38 | 51.22305 | 20.66012 | 22577 ft | 295 kts | 22° |
| 2026-04-30 18:38 | 51.24208 | 20.67080 | 22186 ft | 292 kts | 22° |
| 2026-04-30 18:38 | 51.26100 | 20.68169 | 21813 ft | 290 kts | 24° |
| 2026-04-30 18:39 | 51.27905 | 20.69563 | 21388 ft | 288 kts | 31° |
| 2026-04-30 18:39 | 51.29588 | 20.71352 | 21175 ft | 296 kts | 37° |
| 2026-04-30 18:39 | 51.31182 | 20.73521 | 21239 ft | 303 kts | 40° |
| 2026-04-30 18:39 | 51.32738 | 20.75768 | 21271 ft | 304 kts | 41° |
| 2026-04-30 18:40 | 51.34279 | 20.78013 | 21294 ft | 300 kts | 41° |
| 2026-04-30 18:40 | 51.35826 | 20.80277 | 21225 ft | 301 kts | 41° |
| 2026-04-30 18:40 | 51.37366 | 20.82540 | 20926 ft | 302 kts | 41° |
| 2026-04-30 18:40 | 51.38907 | 20.84810 | 20655 ft | 301 kts | 41° |
| 2026-04-30 18:41 | 51.40435 | 20.87062 | 20368 ft | 301 kts | 41° |
| 2026-04-30 18:41 | 51.41970 | 20.89332 | 20092 ft | 300 kts | 41° |
| 2026-04-30 18:41 | 51.43483 | 20.91570 | 19846 ft | 300 kts | 41° |
| 2026-04-30 18:41 | 51.45018 | 20.93839 | 19581 ft | 299 kts | 41° |
| 2026-04-30 18:42 | 51.46543 | 20.96101 | 19354 ft | 298 kts | 41° |
| 2026-04-30 18:42 | 51.49595 | 21.00632 | 18789 ft | 298 kts | 41° |
| 2026-04-30 18:42 | 51.51133 | 21.02917 | 18509 ft | 297 kts | 41° |
| 2026-04-30 18:45 | 51.66106 | 21.25306 | 16008 ft | 291 kts | 41° |
| 2026-04-30 18:45 | 51.67581 | 21.27525 | 15827 ft | 291 kts | 41° |
| 2026-04-30 18:45 | 51.69057 | 21.29745 | 15570 ft | 291 kts | 41° |
| 2026-04-30 18:46 | 51.70524 | 21.31952 | 15325 ft | 290 kts | 41° |
| 2026-04-30 18:46 | 51.72001 | 21.34180 | 15076 ft | 290 kts | 41° |
| 2026-04-30 18:46 | 51.73479 | 21.36409 | 14807 ft | 290 kts | 41° |
| 2026-04-30 18:46 | 51.74929 | 21.38598 | 14539 ft | 289 kts | 41° |
| 2026-04-30 18:47 | 51.76389 | 21.40806 | 14296 ft | 288 kts | 41° |
| 2026-04-30 18:47 | 51.77861 | 21.42958 | 14037 ft | 286 kts | 36° |
| 2026-04-30 18:47 | 51.79681 | 21.44228 | 13772 ft | 287 kts | 11° |
| 2026-04-30 18:47 | 51.81663 | 21.44225 | 13516 ft | 292 kts | 353° |
| 2026-04-30 18:48 | 51.83611 | 21.43163 | 13268 ft | 297 kts | 341° |
| 2026-04-30 18:48 | 51.85489 | 21.41824 | 13013 ft | 296 kts | 341° |
| 2026-04-30 18:48 | 51.87367 | 21.40480 | 12745 ft | 295 kts | 341° |
| 2026-04-30 18:48 | 51.89222 | 21.39155 | 12513 ft | 294 kts | 340° |
| 2026-04-30 18:49 | 51.91098 | 21.37816 | 12259 ft | 294 kts | 340° |
| 2026-04-30 18:49 | 51.92963 | 21.36487 | 11967 ft | 293 kts | 340° |
| 2026-04-30 18:49 | 51.94815 | 21.35167 | 11647 ft | 291 kts | 340° |
| 2026-04-30 18:49 | 51.96658 | 21.33853 | 11397 ft | 290 kts | 340° |
| 2026-04-30 18:50 | 51.98496 | 21.32543 | 11198 ft | 290 kts | 340° |
| 2026-04-30 18:50 | 52.00327 | 21.31237 | 10951 ft | 289 kts | 340° |
| 2026-04-30 18:50 | 52.02171 | 21.29920 | 10630 ft | 288 kts | 340° |
| 2026-04-30 18:50 | 52.03986 | 21.28624 | 10355 ft | 287 kts | 340° |
| 2026-04-30 18:51 | 52.05811 | 21.27318 | 10233 ft | 286 kts | 340° |
| 2026-04-30 18:51 | 52.07636 | 21.26011 | 10056 ft | 285 kts | 340° |
| 2026-04-30 18:51 | 52.09433 | 21.24724 | 9938 ft | 284 kts | 340° |
| 2026-04-30 18:51 | 52.11238 | 21.23428 | 9739 ft | 275 kts | 340° |
| 2026-04-30 18:52 | 52.12931 | 21.22209 | 9608 ft | 264 kts | 340° |
| 2026-04-30 18:52 | 52.14603 | 21.21006 | 9473 ft | 260 kts | 340° |
| 2026-04-30 18:52 | 52.16248 | 21.19824 | 9313 ft | 259 kts | 340° |
| 2026-04-30 18:52 | 52.17900 | 21.18639 | 9129 ft | 259 kts | 340° |
| 2026-04-30 18:53 | 52.19540 | 21.17460 | 8916 ft | 258 kts | 340° |
| 2026-04-30 18:53 | 52.21175 | 21.16283 | 8635 ft | 257 kts | 339° |
| 2026-04-30 18:53 | 52.22791 | 21.15118 | 8317 ft | 256 kts | 339° |
| 2026-04-30 18:53 | 52.24417 | 21.13946 | 7984 ft | 254 kts | 339° |
| 2026-04-30 18:54 | 52.26011 | 21.12795 | 7635 ft | 252 kts | 339° |
| 2026-04-30 18:54 | 52.27606 | 21.11642 | 7301 ft | 250 kts | 339° |
| 2026-04-30 18:54 | 52.29178 | 21.10505 | 6970 ft | 248 kts | 339° |
| 2026-04-30 18:54 | 52.30764 | 21.09357 | 6625 ft | 246 kts | 338° |
| 2026-04-30 18:55 | 52.32314 | 21.08235 | 6287 ft | 245 kts | 338° |
| 2026-04-30 18:55 | 52.35387 | 21.06007 | 5610 ft | 242 kts | 338° |
| 2026-04-30 18:55 | 52.36936 | 21.04880 | 5272 ft | 241 kts | 338° |
| 2026-04-30 18:56 | 52.39954 | 21.02687 | 4624 ft | 237 kts | 338° |
| 2026-04-30 18:56 | 52.41460 | 21.01590 | 4302 ft | 235 kts | 337° |
| 2026-04-30 18:56 | 52.42947 | 21.00506 | 3986 ft | 232 kts | 337° |
| 2026-04-30 18:57 | 52.45819 | 20.98409 | 3682 ft | 214 kts | 337° |
| 2026-04-30 18:57 | 52.47010 | 20.97062 | 3503 ft | 210 kts | 310° |
| 2026-04-30 18:57 | 52.47573 | 20.94856 | 3362 ft | 207 kts | 283° |
| 2026-04-30 18:58 | 52.47499 | 20.90270 | 3148 ft | 191 kts | 268° |
| 2026-04-30 18:58 | 52.47323 | 20.88166 | 3016 ft | 184 kts | 266° |
| 2026-04-30 18:58 | 52.47123 | 20.86070 | 2971 ft | 184 kts | 265° |
| 2026-04-30 18:59 | 52.46725 | 20.82076 | 2443 ft | 173 kts | 264° |
| 2026-04-30 19:00 | 52.46234 | 20.76829 | 1665 ft | 139 kts | 264° |
| 2026-04-30 19:00 | 52.46084 | 20.75283 | 1442 ft | 139 kts | 262° |
| 2026-04-30 19:00 | 52.45782 | 20.72164 | 1067 ft | 138 kts | 263° |
| 2026-04-30 19:01 | 52.45491 | 20.69065 | 644 ft | 138 kts | 262° |
| 2026-04-30 19:01 | 52.45347 | 20.67526 | 436 ft | 137 kts | 261° |
| 2026-04-30 19:02 | 52.45097 | 20.64910 | 335 ft | 73 kts | 262° |
| 2026-04-30 19:02 | 52.45003 | 20.63913 | 332 ft | 35 kts | 262° |
| 2026-04-30 19:03 | 52.44905 | 20.63397 | 338 ft | 15 kts | 187° |
| 2026-04-30 19:03 | 52.44703 | 20.63439 | 341 ft | 13 kts | 171° |
| 2026-04-30 19:04 | 52.44639 | 20.63656 | 341 ft | 13 kts | 82° |
| 2026-04-30 19:04 | 52.44673 | 20.64016 | 337 ft | 17 kts | 82° |
| 2026-04-30 19:05 | 52.44709 | 20.64400 | 336 ft | 17 kts | 82° |
| 2026-04-30 19:05 | 52.44744 | 20.64760 | 339 ft | 14 kts | 82° |
| 2026-04-30 19:06 | 52.44775 | 20.65078 | 338 ft | 13 kts | 81° |
| 2026-04-30 19:06 | 52.44778 | 20.65183 | 338 ft | 5 kts | 121° |
| 2026-04-30 19:06 | 52.44749 | 20.65186 | 339 ft | 0 kts | 204° |
| 2026-04-30 19:07 | 52.44740 | 20.65179 | 339 ft | 0 kts | 205° |